Time;durP1;ratioP1;P1;durP2;ratioP2;P2;SDS_P1;SDS_P2;PMS_P1;PMS_P2;Temp;Humidity;BMP_temperature;BMP_pressure;BME280_temperature;BME280_humidity;BME280_pressure;Samples;Min_cycle;Max_cycle;Signal;HPM_P1;HPM_P2
2022/04/18 00:00:19;;;;;;;1.52;0.90;;;12.70;59.90;;;;;;7336884;19;108876;-87
2022/04/18 00:02:46;;;;;;;2.90;0.95;;;12.70;60.00;;;;;;7344223;19;111775;-86
2022/04/18 00:05:13;;;;;;;3.53;1.00;;;12.60;60.10;;;;;;7336884;19;107554;-87
2022/04/18 00:07:40;;;;;;;2.20;1.00;;;12.60;60.20;;;;;;7337380;19;107960;-87
2022/04/18 00:10:07;;;;;;;2.45;0.88;;;12.60;60.30;;;;;;7336781;19;107801;-86
2022/04/18 00:12:35;;;;;;;1.75;0.90;;;12.50;60.40;;;;;;7338179;19;107414;-87
2022/04/18 00:15:02;;;;;;;2.08;1.10;;;12.50;60.50;;;;;;7336909;19;109218;-86
2022/04/18 00:17:29;;;;;;;1.30;0.90;;;12.40;60.50;;;;;;7339136;19;111038;-87
2022/04/18 00:19:56;;;;;;;3.20;0.80;;;12.40;60.50;;;;;;7338026;19;107774;-86
2022/04/18 00:22:23;;;;;;;2.03;0.90;;;12.30;60.40;;;;;;7337359;19;110650;-86
2022/04/18 00:24:51;;;;;;;1.48;0.93;;;12.30;60.40;;;;;;7341751;19;108013;-87
2022/04/18 00:27:18;;;;;;;1.25;1.00;;;12.20;60.50;;;;;;7335124;19;111524;-86
2022/04/18 00:29:47;;;;;;;1.90;1.00;;;12.20;60.60;;;;;;7336761;19;108801;-87
2022/04/18 00:32:15;;;;;;;3.75;1.02;;;12.10;60.50;;;;;;7337580;19;108186;-87
2022/04/18 00:34:43;;;;;;;2.10;0.90;;;12.00;60.70;;;;;;7338614;19;107986;-86
2022/04/18 00:37:16;;;;;;;2.58;1.10;;;12.00;60.80;;;;;;7337678;19;108030;-86
2022/04/18 00:39:43;;;;;;;1.48;0.90;;;12.00;60.80;;;;;;7336925;19;108164;-87
2022/04/18 00:42:10;;;;;;;1.77;0.98;;;11.90;60.90;;;;;;7337931;19;112155;-86
2022/04/18 00:44:37;;;;;;;1.85;1.25;;;11.90;61.00;;;;;;7337883;19;109071;-86
2022/04/18 00:47:04;;;;;;;2.45;0.90;;;11.80;61.30;;;;;;7341886;19;108662;-84
2022/04/18 00:49:33;;;;;;;2.92;1.08;;;11.80;61.50;;;;;;7337938;19;111320;-86
2022/04/18 00:52:03;;;;;;;2.80;1.50;;;11.80;61.60;;;;;;7336866;19;111416;-86
2022/04/18 00:54:32;;;;;;;2.20;1.13;;;11.70;61.90;;;;;;7335689;19;109237;-86
2022/04/18 00:56:59;;;;;;;7.85;1.13;;;11.60;61.80;;;;;;7334728;19;110602;-86
2022/04/18 00:59:30;;;;;;;2.65;1.00;;;11.60;61.90;;;;;;7333665;19;108200;-86
2022/04/18 01:01:57;;;;;;;4.00;1.10;;;11.50;62.00;;;;;;7335633;19;109011;-85
2022/04/18 01:04:25;;;;;;;4.57;1.17;;;11.50;62.10;;;;;;7336328;19;108869;-86
2022/04/18 01:06:52;;;;;;;;;;;11.50;62.40;;;;;;7341860;19;107767;-87
2022/04/18 01:09:19;;;;;;;3.38;1.00;;;11.40;62.30;;;;;;7337974;19;107247;-86
2022/04/18 01:11:47;;;;;;;1.45;1.00;;;11.30;62.50;;;;;;7337182;19;107837;-87
2022/04/18 01:14:15;;;;;;;2.00;1.23;;;11.30;62.60;;;;;;7333922;19;111167;-87
2022/04/18 01:16:42;;;;;;;1.67;1.20;;;11.30;62.60;;;;;;7335280;19;108378;-86
2022/04/18 01:19:09;;;;;;;1.55;1.10;;;11.20;62.80;;;;;;7332846;19;112341;-86
2022/04/18 01:21:36;;;;;;;8.60;1.50;;;11.20;63.10;;;;;;7334590;19;109251;-86
2022/04/18 01:28:58;;;;;;;3.15;1.00;;;11.10;63.20;;;;;;7332504;19;109269;-87
2022/04/18 01:29:37;;;;;;;3.63;1.20;;;11.00;63.50;;;;;;7341097;19;112087;-86
2022/04/18 01:32:04;;;;;;;3.65;1.10;;;10.90;63.90;;;;;;7333511;19;108082;-85
2022/04/18 01:34:31;;;;;;;1.45;0.80;;;10.90;64.50;;;;;;7335597;19;108747;-86
2022/04/18 01:36:58;;;;;;;2.55;1.00;;;10.80;64.70;;;;;;7334179;19;111057;-86
2022/04/18 01:39:25;;;;;;;1.98;1.05;;;10.80;64.90;;;;;;7333021;19;111188;-86
2022/04/18 01:41:52;;;;;;;;;;;10.80;65.00;;;;;;7336802;19;111817;-86
2022/04/18 01:44:19;;;;;;;3.38;1.00;;;10.70;65.50;;;;;;7338533;19;108402;-86
2022/04/18 01:46:46;;;;;;;2.65;1.05;;;10.60;65.70;;;;;;7334206;19;108139;-86
2022/04/18 01:49:13;;;;;;;1.92;0.95;;;10.50;66.00;;;;;;7335963;19;109758;-87
2022/04/18 01:51:40;;;;;;;3.10;0.95;;;10.50;66.20;;;;;;7338453;19;107842;-87
2022/04/18 01:54:07;;;;;;;5.18;1.10;;;10.40;66.10;;;;;;7334311;19;109002;-85
2022/04/18 01:56:34;;;;;;;;;;;10.40;66.50;;;;;;7335902;19;111125;-86
2022/04/18 01:59:01;;;;;;;2.50;1.10;;;10.20;66.80;;;;;;7337335;19;107796;-86
2022/04/18 02:01:28;;;;;;;1.40;0.90;;;10.20;67.90;;;;;;7334619;19;110153;-85
2022/04/18 02:03:55;;;;;;;1.77;1.02;;;10.20;67.90;;;;;;7334839;19;110078;-86
2022/04/18 02:06:22;;;;;;;1.40;1.10;;;10.20;67.70;;;;;;7333265;19;108174;-87
2022/04/18 02:08:49;;;;;;;2.15;1.20;;;10.20;67.10;;;;;;7334968;19;108964;-86
2022/04/18 02:11:17;;;;;;;;;;;10.10;67.30;;;;;;7333660;19;110055;-86
2022/04/18 02:13:44;;;;;;;2.03;1.20;;;10.00;68.40;;;;;;7341070;19;108054;-86
2022/04/18 02:16:11;;;;;;;2.22;1.10;;;9.90;68.00;;;;;;7335244;19;107368;-83
2022/04/18 02:18:38;;;;;;;2.05;1.10;;;9.90;68.20;;;;;;7333523;19;108257;-86
2022/04/18 02:21:07;;;;;;;1.27;1.08;;;9.80;68.10;;;;;;7334525;19;107918;-84
2022/04/18 02:23:34;;;;;;;4.25;1.10;;;9.80;68.10;;;;;;7332644;19;108272;-86
2022/04/18 02:26:01;;;;;;;;;;;9.70;68.30;;;;;;7335850;19;109709;-86
2022/04/18 02:28:28;;;;;;;5.03;0.82;;;9.60;68.80;;;;;;7338495;19;108648;-86
2022/04/18 02:30:55;;;;;;;;;;;9.60;69.30;;;;;;7332805;19;107655;-86
2022/04/18 02:33:22;;;;;;;2.03;0.95;;;9.50;69.70;;;;;;7335560;19;110796;-85
2022/04/18 02:35:49;;;;;;;2.42;0.95;;;9.40;69.30;;;;;;7339035;19;109304;-86
2022/04/18 02:38:17;;;;;;;2.58;1.33;;;9.40;69.40;;;;;;7331717;19;108023;-86
2022/04/18 02:40:44;;;;;;;4.53;1.20;;;9.40;69.60;;;;;;7333796;19;111131;-86
2022/04/18 02:43:14;;;;;;;5.45;0.90;;;9.40;69.60;;;;;;7334563;19;108346;-86
2022/04/18 02:45:44;;;;;;;2.03;1.00;;;9.30;69.40;;;;;;7332013;19;107320;-86
2022/04/18 02:48:12;;;;;;;3.35;1.10;;;9.30;69.50;;;;;;7331703;19;107796;-86
2022/04/18 02:50:38;;;;;;;;;;;9.30;69.40;;;;;;7340591;19;108059;-87
2022/04/18 02:53:06;;;;;;;4.53;1.20;;;9.20;69.80;;;;;;7342536;19;107596;-87
2022/04/18 02:55:33;;;;;;;1.95;1.10;;;9.20;69.30;;;;;;7339367;19;107954;-85
2022/04/18 02:58:00;;;;;;;7.28;1.15;;;9.20;69.30;;;;;;7345935;19;107856;-87
2022/04/18 03:00:27;;;;;;;2.30;1.30;;;9.20;69.20;;;;;;7336290;19;108493;-85
2022/04/18 03:02:54;;;;;;;2.95;1.40;;;9.20;69.30;;;;;;7335927;19;109243;-85
2022/04/18 03:05:21;;;;;;;2.45;1.17;;;9.10;70.60;;;;;;7340284;19;107874;-85
2022/04/18 03:07:49;;;;;;;1.40;1.00;;;9.00;70.00;;;;;;7339017;19;111261;-85
2022/04/18 03:10:15;;;;;;;3.95;1.35;;;9.00;70.30;;;;;;7336765;19;111207;-86
2022/04/18 03:12:42;;;;;;;;;;;9.00;70.20;;;;;;7339151;19;107191;-85
2022/04/18 03:15:09;;;;;;;2.08;1.02;;;8.90;71.10;;;;;;7339484;19;108805;-86
2022/04/18 03:17:36;;;;;;;2.67;1.20;;;8.80;70.90;;;;;;7343764;19;107980;-85
2022/04/18 03:20:03;;;;;;;;;;;8.80;70.70;;;;;;7335893;19;110225;-88
2022/04/18 03:22:31;;;;;;;2.65;1.38;;;8.80;70.70;;;;;;7339164;19;108931;-86
2022/04/18 03:24:58;;;;;;;3.05;1.35;;;8.80;70.90;;;;;;7340152;19;110272;-85
2022/04/18 03:27:25;;;;;;;;;;;8.70;70.60;;;;;;7340955;19;110304;-86
2022/04/18 03:29:52;;;;;;;2.20;1.43;;;8.70;71.70;;;;;;7342426;19;107468;-86
2022/04/18 03:32:19;;;;;;;;;;;8.60;71.90;;;;;;7339868;19;108141;-85
2022/04/18 03:34:46;;;;;;;2.05;1.02;;;8.50;73.70;;;;;;7342828;19;110922;-86
2022/04/18 03:39:59;;;;;;;1.98;1.20;;;8.40;73.00;;;;;;7346552;19;109075;-86
2022/04/18 03:42:31;;;;;;;;;;;8.30;72.50;;;;;;7337465;19;107841;-85
2022/04/18 03:45:01;;;;;;;3.95;1.25;;;8.30;72.80;;;;;;7343698;19;107613;-85
2022/04/18 03:47:31;;;;;;;2.67;1.35;;;8.30;73.00;;;;;;7337999;19;108901;-86
2022/04/18 03:49:58;;;;;;;1.83;1.20;;;8.30;72.40;;;;;;7336238;19;108907;-85
2022/04/18 03:52:25;;;;;;;3.67;1.10;;;8.30;72.90;;;;;;7339489;19;108719;-86
2022/04/18 03:54:53;;;;;;;4.93;1.25;;;8.30;73.00;;;;;;7336466;19;108695;-85
2022/04/18 03:57:20;;;;;;;2.10;1.45;;;8.30;72.70;;;;;;7338967;19;108081;-86
2022/04/18 03:59:47;;;;;;;5.18;1.20;;;8.30;72.50;;;;;;7334902;19;107987;-85
2022/04/18 04:02:15;;;;;;;4.60;1.23;;;8.30;72.70;;;;;;7339386;19;108326;-86
2022/04/18 04:04:43;;;;;;;2.95;1.40;;;8.30;72.70;;;;;;7336943;19;108188;-85
2022/04/18 04:07:10;;;;;;;3.15;1.27;;;8.30;72.70;;;;;;7337041;19;108306;-86
2022/04/18 04:09:38;;;;;;;2.92;1.20;;;8.30;72.30;;;;;;7337251;19;107943;-85
2022/04/18 04:12:06;;;;;;;7.03;1.50;;;8.30;72.50;;;;;;7335650;19;108841;-86
2022/04/18 04:14:33;;;;;;;3.13;1.20;;;8.30;72.90;;;;;;7333800;19;109541;-86
2022/04/18 04:17:00;;;;;;;3.42;1.55;;;8.30;72.70;;;;;;7335117;19;110008;-85
2022/04/18 04:19:28;;;;;;;4.13;1.52;;;8.30;73.20;;;;;;7333941;19;108254;-85
2022/04/18 04:21:55;;;;;;;4.38;1.40;;;8.20;73.30;;;;;;7334052;19;109236;-86
2022/04/18 04:24:22;;;;;;;2.88;1.45;;;8.20;73.20;;;;;;7341898;19;108031;-85
2022/04/18 04:26:49;;;;;;;3.60;1.20;;;8.20;73.30;;;;;;7334465;19;108689;-86
2022/04/18 04:29:18;;;;;;;2.75;1.40;;;8.10;73.10;;;;;;7334741;19;107639;-86
2022/04/18 04:31:45;;;;;;;4.53;1.17;;;8.10;73.50;;;;;;7334992;19;108207;-86
2022/04/18 04:34:12;;;;;;;3.20;1.40;;;8.10;73.70;;;;;;7334925;19;110004;-86
2022/04/18 04:36:40;;;;;;;4.30;2.03;;;8.10;73.80;;;;;;7336656;19;107930;-86
2022/04/18 04:39:08;;;;;;;4.00;2.45;;;8.00;73.50;;;;;;7336714;19;108377;-85
2022/04/18 04:41:36;;;;;;;5.07;1.70;;;8.00;73.50;;;;;;7339550;19;109441;-85
2022/04/18 04:44:06;;;;;;;3.47;1.98;;;8.00;73.50;;;;;;7336891;19;108098;-86
2022/04/18 04:46:34;;;;;;;4.95;1.50;;;8.00;73.70;;;;;;7341347;19;108256;-86
2022/04/18 04:49:02;;;;;;;4.20;1.55;;;8.00;73.70;;;;;;7337526;19;107842;-86
2022/04/18 04:51:29;;;;;;;2.80;1.60;;;8.00;73.80;;;;;;7334249;19;108814;-86
2022/04/18 04:53:56;;;;;;;4.30;1.50;;;8.00;73.90;;;;;;7334008;19;109234;-86
2022/04/18 04:56:25;;;;;;;5.17;1.70;;;8.00;73.90;;;;;;7335170;19;111611;-85
2022/04/18 04:58:53;;;;;;;4.82;1.63;;;8.00;74.30;;;;;;7334020;19;108591;-86
2022/04/18 05:01:22;;;;;;;4.07;1.70;;;8.00;74.60;;;;;;7332404;19;109601;-86
2022/04/18 05:03:49;;;;;;;2.33;1.50;;;8.00;75.10;;;;;;7335159;19;107624;-86
2022/04/18 05:06:16;;;;;;;3.17;1.57;;;8.00;74.90;;;;;;7339718;19;108794;-86
2022/04/18 05:08:44;;;;;;;8.10;1.75;;;8.00;74.90;;;;;;7334341;19;110318;-85
2022/04/18 05:11:11;;;;;;;3.47;1.55;;;8.00;74.80;;;;;;7333472;19;108125;-85
2022/04/18 05:13:41;;;;;;;3.00;1.77;;;8.00;74.70;;;;;;7333800;19;109180;-86
2022/04/18 05:16:08;;;;;;;4.07;1.50;;;8.00;75.80;;;;;;7333630;19;107914;-85
2022/04/18 05:18:38;;;;;;;3.30;1.70;;;8.10;76.20;;;;;;7335099;19;108290;-85
2022/04/18 05:21:05;;;;;;;3.40;1.60;;;8.10;75.80;;;;;;7330805;19;113078;-84
2022/04/18 05:23:33;;;;;;;3.92;1.55;;;8.10;75.80;;;;;;7336919;19;108434;-85
2022/04/18 05:26:00;;;;;;;6.22;1.95;;;8.20;75.60;;;;;;7334769;19;108290;-86
2022/04/18 05:28:27;;;;;;;5.18;1.83;;;8.20;76.00;;;;;;7339441;19;109313;-85
2022/04/18 05:30:59;;;;;;;6.47;1.80;;;8.20;77.20;;;;;;7333710;19;110863;-84
2022/04/18 05:33:27;;;;;;;4.95;1.42;;;8.30;79.50;;;;;;7333788;19;111608;-85
2022/04/18 05:35:54;;;;;;;5.32;1.95;;;8.20;81.90;;;;;;7337129;19;108985;-86
2022/04/18 05:38:22;;;;;;;5.53;2.00;;;8.30;80.40;;;;;;7334953;19;108137;-86
2022/04/18 05:40:49;;;;;;;;;;;8.40;80.00;;;;;;7332669;19;108850;-85
2022/04/18 05:43:17;;;;;;;8.45;1.67;;;8.40;81.20;;;;;;7337412;19;107812;-85
2022/04/18 05:45:44;;;;;;;6.30;1.88;;;8.50;81.90;;;;;;7337110;19;108642;-85
2022/04/18 05:48:13;;;;;;;8.40;2.42;;;8.50;80.80;;;;;;7335733;19;109078;-85
2022/04/18 05:50:45;;;;;;;4.35;2.00;;;8.60;81.70;;;;;;7342182;19;110197;-85
2022/04/18 05:53:13;;;;;;;9.27;2.92;;;8.70;81.80;;;;;;7336544;19;109319;-85
2022/04/18 05:55:41;;;;;;;6.03;2.20;;;8.80;82.10;;;;;;7333751;19;107238;-85
2022/04/18 05:58:08;;;;;;;6.07;2.28;;;8.90;81.50;;;;;;7335657;19;108283;-85
2022/04/18 06:00:35;;;;;;;5.68;2.20;;;9.00;81.60;;;;;;7334169;19;109257;-85
2022/04/18 06:03:03;;;;;;;7.65;2.17;;;9.10;81.90;;;;;;7333759;19;108299;-85
2022/04/18 06:05:32;;;;;;;6.45;1.77;;;9.30;81.60;;;;;;7335886;19;108023;-85
2022/04/18 06:08:00;;;;;;;4.00;1.90;;;9.40;82.50;;;;;;7335157;19;111854;-85
2022/04/18 06:10:27;;;;;;;3.47;1.55;;;9.50;82.10;;;;;;7337101;19;107689;-86
2022/04/18 06:12:54;;;;;;;3.25;1.50;;;9.60;81.80;;;;;;7340133;19;108303;-85
2022/04/18 06:15:22;;;;;;;3.10;1.33;;;9.80;81.50;;;;;;7332766;19;108252;-86
2022/04/18 06:17:50;;;;;;;3.67;1.52;;;9.90;81.20;;;;;;7334960;19;107918;-85
2022/04/18 06:20:17;;;;;;;3.33;1.55;;;10.10;80.90;;;;;;7332441;19;108940;-85
2022/04/18 06:22:44;;;;;;;5.93;1.67;;;10.20;81.20;;;;;;7335955;19;107642;-85
2022/04/18 06:25:11;;;;;;;4.30;1.63;;;10.40;81.10;;;;;;7339999;19;109594;-85
2022/04/18 06:27:38;;;;;;;2.03;1.30;;;10.50;81.40;;;;;;7341814;19;107774;-86
2022/04/18 06:30:05;;;;;;;;;;;10.60;80.60;;;;;;7340786;19;108082;-86
2022/04/18 06:32:36;;;;;;;6.53;1.77;;;10.70;80.30;;;;;;7342340;19;108374;-86
2022/04/18 06:35:04;;;;;;;4.75;1.48;;;10.80;79.60;;;;;;7344594;19;108461;-86
2022/04/18 06:37:32;;;;;;;3.45;1.52;;;11.00;79.10;;;;;;7341310;19;110523;-86
2022/04/18 06:39:59;;;;;;;2.67;1.42;;;11.10;78.70;;;;;;7336396;19;108868;-86
2022/04/18 06:42:26;;;;;;;3.03;1.42;;;11.20;80.30;;;;;;7339569;19;108606;-86
2022/04/18 06:44:54;;;;;;;3.97;1.48;;;11.30;79.00;;;;;;7337841;19;111025;-85
2022/04/18 06:47:24;;;;;;;4.57;1.60;;;11.40;79.00;;;;;;7338515;19;109908;-86
2022/04/18 06:49:51;;;;;;;5.90;2.03;;;11.60;78.80;;;;;;7338094;19;108039;-86
2022/04/18 06:52:24;;;;;;;10.07;2.10;;;11.70;78.40;;;;;;7337202;19;107853;-86
2022/04/18 06:54:51;;;;;;;2.50;1.50;;;11.90;77.90;;;;;;7338806;19;108945;-86
2022/04/18 06:57:18;;;;;;;;;;;12.00;78.00;;;;;;7342857;19;107848;-86
2022/04/18 06:59:46;;;;;;;2.72;1.33;;;12.10;77.80;;;;;;7339706;19;109179;-87
2022/04/18 07:02:13;;;;;;;2.83;1.63;;;12.30;77.10;;;;;;7340184;19;107843;-89
2022/04/18 07:04:40;;;;;;;2.00;1.30;;;12.40;76.60;;;;;;7339320;19;107756;-89
2022/04/18 07:07:08;;;;;;;3.75;1.60;;;12.60;76.40;;;;;;7337095;19;107704;-88
2022/04/18 07:09:36;;;;;;;3.08;1.50;;;12.60;76.30;;;;;;7337355;19;108041;-88
2022/04/18 07:12:03;;;;;;;3.72;1.73;;;12.70;76.00;;;;;;7339699;19;111609;-88
2022/04/18 07:14:30;;;;;;;3.58;1.48;;;12.80;76.00;;;;;;7339337;19;111620;-87
2022/04/18 07:16:57;;;;;;;3.70;1.67;;;12.90;75.40;;;;;;7345643;19;108364;-88
2022/04/18 07:19:25;;;;;;;4.47;1.45;;;13.00;75.10;;;;;;7336849;19;108807;-89
2022/04/18 07:21:53;;;;;;;2.85;1.42;;;13.00;74.70;;;;;;7336023;19;107206;-89
2022/04/18 07:24:20;;;;;;;3.17;1.45;;;13.10;74.50;;;;;;7338030;19;107982;-89
2022/04/18 07:26:47;;;;;;;4.60;1.52;;;13.20;74.50;;;;;;7338362;19;109584;-88
2022/04/18 07:29:15;;;;;;;2.20;1.60;;;13.30;75.10;;;;;;7339630;19;107808;-87
2022/04/18 07:31:42;;;;;;;4.00;1.52;;;13.50;75.00;;;;;;7338627;19;110577;-88
2022/04/18 07:34:10;;;;;;;1.95;1.33;;;13.60;74.40;;;;;;7338240;19;110622;-87
2022/04/18 07:36:37;;;;;;;2.35;1.50;;;13.80;74.00;;;;;;7336282;19;109174;-89
2022/04/18 07:39:04;;;;;;;3.42;1.58;;;13.90;73.50;;;;;;7343172;19;109995;-89
2022/04/18 07:41:33;;;;;;;2.40;1.58;;;14.00;73.10;;;;;;7335768;19;109504;-89
2022/04/18 07:44:01;;;;;;;3.03;1.35;;;14.10;72.80;;;;;;7338422;19;108480;-88
2022/04/18 07:46:29;;;;;;;3.00;1.70;;;14.20;72.80;;;;;;7337675;19;111080;-88
2022/04/18 07:48:59;;;;;;;3.65;1.80;;;14.40;72.40;;;;;;7340460;19;107928;-87
2022/04/18 07:51:35;;;;;;;3.38;1.67;;;14.50;72.20;;;;;;7340664;19;107623;-92
2022/04/18 07:54:07;;;;;;;5.85;1.38;;;14.60;72.20;;;;;;7341912;19;109280;-94
2022/04/18 07:56:35;;;;;;;2.55;1.20;;;14.80;72.10;;;;;;7343835;19;108461;-92
2022/04/18 07:59:03;;;;;;;4.95;1.48;;;14.90;71.30;;;;;;7342858;19;109128;-95
2022/04/18 08:01:32;;;;;;;7.35;1.45;;;15.00;71.10;;;;;;7346722;19;107661;-95
2022/04/18 08:04:01;;;;;;;7.05;1.30;;;15.10;70.70;;;;;;7343595;19;107510;-93
2022/04/18 08:06:29;;;;;;;2.72;1.33;;;15.20;70.80;;;;;;7339533;19;108764;-90
2022/04/18 08:08:57;;;;;;;3.88;1.42;;;15.30;70.20;;;;;;7341159;19;108232;-90
2022/04/18 08:11:27;;;;;;;3.08;1.30;;;15.40;70.40;;;;;;7339063;19;108105;-91
2022/04/18 08:13:54;;;;;;;4.70;1.50;;;15.50;70.50;;;;;;7339706;19;109413;-91
2022/04/18 08:16:22;;;;;;;6.07;1.42;;;15.60;69.40;;;;;;7336731;19;108452;-91
2022/04/18 08:18:49;;;;;;;3.72;1.52;;;15.70;69.10;;;;;;7339871;19;107459;-92
2022/04/18 08:21:17;;;;;;;3.13;1.42;;;15.80;70.20;;;;;;7332911;19;108064;-89
2022/04/18 08:23:47;;;;;;;5.15;1.48;;;15.90;69.30;;;;;;7340383;19;108336;-87
2022/04/18 08:26:14;;;;;;;1.75;1.40;;;16.00;69.00;;;;;;7333746;19;112612;-89
2022/04/18 08:28:42;;;;;;;2.90;1.40;;;16.20;68.30;;;;;;7336533;19;109269;-89
2022/04/18 08:31:09;;;;;;;4.03;1.23;;;16.30;68.20;;;;;;7332376;19;109843;-87
2022/04/18 08:33:39;;;;;;;1.90;1.10;;;16.40;68.30;;;;;;7336373;19;111031;-90
2022/04/18 08:36:06;;;;;;;2.67;1.55;;;16.50;67.50;;;;;;7340059;19;107705;-90
2022/04/18 08:38:33;;;;;;;3.33;1.30;;;16.60;67.30;;;;;;7334275;19;108615;-89
2022/04/18 08:41:09;;;;;;;3.13;1.67;;;16.70;66.50;;;;;;7335890;19;109095;-91
2022/04/18 08:43:38;;;;;;;3.42;1.40;;;16.80;66.50;;;;;;7334113;19;108356;-89
2022/04/18 08:46:05;;;;;;;2.78;1.33;;;16.90;67.80;;;;;;7338659;19;109256;-88
2022/04/18 08:54:07;;;;;;;4.00;1.60;;;17.20;66.90;;;;;;7337114;19;109007;-91
2022/04/18 08:56:34;;;;;;;3.60;1.38;;;17.30;65.90;;;;;;7336653;19;107810;-92
2022/04/18 08:59:02;;;;;;;2.05;1.33;;;17.20;66.00;;;;;;7333836;19;107886;-92
2022/04/18 09:01:29;;;;;;;5.15;1.70;;;17.30;65.70;;;;;;7336588;19;110621;-92
2022/04/18 09:03:58;;;;;;;3.83;1.50;;;17.40;66.60;;;;;;7340369;19;108409;-93
2022/04/18 09:06:25;;;;;;;2.13;1.30;;;17.50;65.80;;;;;;7335410;19;108041;-92
2022/04/18 09:08:57;;;;;;;4.88;1.50;;;17.60;63.80;;;;;;7342437;19;108529;-90
2022/04/18 09:11:26;;;;;;;5.18;1.30;;;17.80;62.30;;;;;;7337252;19;107305;-90
2022/04/18 09:14:05;;;;;;;7.38;1.38;;;17.80;61.50;;;;;;7336134;19;107905;-92
2022/04/18 09:16:33;;;;;;;2.55;1.30;;;17.80;62.50;;;;;;7337070;19;107502;-91
2022/04/18 09:19:12;;;;;;;5.10;1.30;;;17.70;62.00;;;;;;7335221;19;107757;-91
2022/04/18 09:21:58;;;;;;;5.15;1.40;;;17.70;63.60;;;;;;7333910;19;110587;-91
2022/04/18 09:24:33;;;;;;;4.95;1.38;;;17.80;63.90;;;;;;7335146;19;107679;-91
2022/04/18 09:27:32;;;;;;;4.68;1.40;;;17.80;62.70;;;;;;7335014;19;108498;-90
2022/04/18 09:30:30;;;;;;;2.10;1.33;;;17.80;62.80;;;;;;7339030;19;109195;-92
2022/04/18 09:33:04;;;;;;;4.65;1.45;;;17.80;63.00;;;;;;7330714;19;108605;-89
2022/04/18 09:35:32;;;;;;;3.65;1.67;;;17.90;63.90;;;;;;7333229;19;107906;-90
2022/04/18 09:38:08;;;;;;;3.40;1.38;;;18.00;63.20;;;;;;7335701;19;108119;-91
2022/04/18 09:40:37;;;;;;;3.22;1.40;;;18.20;62.60;;;;;;7334640;19;109864;-90
2022/04/18 09:43:04;;;;;;;3.65;1.30;;;18.30;62.00;;;;;;7332355;19;109355;-90
2022/04/18 09:45:32;;;;;;;2.58;1.30;;;18.50;62.10;;;;;;7336401;19;109942;-89
2022/04/18 09:48:03;;;;;;;4.38;1.40;;;18.60;61.90;;;;;;7335585;19;110829;-91
2022/04/18 09:53:26;;;;;;;2.53;1.20;;;18.60;63.10;;;;;;7342381;19;107804;-90
2022/04/18 09:55:55;;;;;;;6.30;1.40;;;18.70;60.80;;;;;;7329214;19;108416;-91
2022/04/18 09:58:23;;;;;;;6.63;1.77;;;18.80;62.20;;;;;;7333025;19;107931;-90
2022/04/18 10:01:12;;;;;;;4.90;1.40;;;19.00;60.10;;;;;;7337711;19;107970;-90
2022/04/18 10:03:41;;;;;;;2.35;1.13;;;19.10;60.30;;;;;;7337591;19;108118;-92
2022/04/18 10:06:08;;;;;;;2.20;1.23;;;19.30;58.90;;;;;;7340071;19;110247;-90
2022/04/18 10:08:36;;;;;;;3.55;1.30;;;19.30;59.70;;;;;;7342998;19;109405;-92
2022/04/18 10:11:07;;;;;;;3.90;1.33;;;19.30;59.30;;;;;;7341142;19;108973;-91
2022/04/18 10:13:36;;;;;;;2.65;1.58;;;19.30;59.90;;;;;;7345523;19;109136;-93
2022/04/18 10:16:05;;;;;;;2.38;1.20;;;19.30;58.80;;;;;;7346185;19;107508;-92
2022/04/18 10:18:41;;;;;;;5.57;1.67;;;19.40;57.90;;;;;;7336094;19;109648;-93
2022/04/18 10:21:08;;;;;;;2.33;1.20;;;19.40;58.70;;;;;;7343779;19;107636;-95
2022/04/18 10:24:12;;;;;;;4.13;1.40;;;19.60;58.90;;;;;;7343886;19;110140;-94
2022/04/18 10:26:57;;;;;;;3.50;1.50;;;19.70;59.00;;;;;;7345734;19;106847;-94
2022/04/18 10:29:42;;;;;;;1.80;1.30;;;19.80;57.70;;;;;;7345283;19;107614;-95
2022/04/18 10:32:10;;;;;;;2.25;1.35;;;20.00;58.20;;;;;;7344226;19;110059;-90
2022/04/18 10:34:38;;;;;;;1.95;1.30;;;20.00;58.50;;;;;;7338292;19;110635;-91
2022/04/18 10:37:08;;;;;;;1.33;1.20;;;20.10;57.40;;;;;;7342714;19;109346;-91
2022/04/18 10:39:38;;;;;;;2.10;1.42;;;20.10;53.90;;;;;;7341462;19;112104;-91
2022/04/18 10:42:22;;;;;;;4.45;1.52;;;20.10;56.50;;;;;;7341421;19;108166;-90
2022/04/18 10:45:10;;;;;;;1.77;1.33;;;20.30;56.80;;;;;;7341463;19;107698;-91
2022/04/18 10:47:56;;;;;;;;;;;20.30;55.60;;;;;;7346825;19;107327;-95
2022/04/18 10:50:37;;;;;;;3.17;1.30;;;20.40;57.00;;;;;;7346803;19;108653;-93
2022/04/18 10:53:24;;;;;;;2.95;1.40;;;20.60;55.50;;;;;;7343907;19;108548;-92
2022/04/18 10:55:51;;;;;;;2.15;1.20;;;20.70;55.90;;;;;;7341656;19;108601;-91
2022/04/18 10:58:30;;;;;;;4.07;1.70;;;20.80;54.50;;;;;;7343029;19;108428;-92
2022/04/18 11:00:59;;;;;;;3.78;1.20;;;20.60;51.40;;;;;;7343019;19;109829;-95
2022/04/18 11:03:35;;;;;;;2.40;1.10;;;20.60;55.60;;;;;;7347621;19;108835;-95
2022/04/18 11:06:15;;;;;;;2.25;1.20;;;20.90;55.70;;;;;;7347373;19;107669;-95
2022/04/18 11:08:58;;;;;;;3.67;1.13;;;20.90;55.80;;;;;;7345857;19;108367;-94
2022/04/18 11:11:36;;;;;;;1.92;1.20;;;21.00;54.90;;;;;;7342030;19;108341;-92
2022/04/18 11:14:22;;;;;;;2.13;1.50;;;21.10;56.30;;;;;;7342493;19;108283;-93
2022/04/18 11:16:54;;;;;;;1.80;1.25;;;21.20;54.30;;;;;;7337196;19;108142;-93
2022/04/18 11:19:26;;;;;;;2.22;1.58;;;21.20;54.80;;;;;;7347749;19;107357;-93
2022/04/18 11:21:57;;;;;;;2.88;1.40;;;21.20;55.00;;;;;;7340414;19;108836;-92
2022/04/18 11:24:42;;;;;;;1.98;1.40;;;21.10;54.50;;;;;;7343298;19;108858;-93
2022/04/18 11:27:17;;;;;;;2.20;1.50;;;21.20;54.20;;;;;;7347730;19;107608;-93
2022/04/18 11:29:50;;;;;;;1.60;1.35;;;21.40;54.10;;;;;;7339438;19;108033;-92
2022/04/18 11:32:23;;;;;;;7.18;1.50;;;21.50;53.70;;;;;;7341502;19;110695;-93
2022/04/18 11:34:53;;;;;;;4.95;1.70;;;21.70;53.40;;;;;;7342776;19;108116;-94
2022/04/18 11:37:31;;;;;;;2.15;1.30;;;21.80;54.80;;;;;;7343696;19;107216;-94
2022/04/18 11:40:04;;;;;;;3.92;1.35;;;21.90;54.40;;;;;;7337309;19;110738;-93
2022/04/18 11:42:33;;;;;;;3.45;1.52;;;21.90;55.00;;;;;;7342093;19;109033;-93
2022/04/18 11:45:21;;;;;;;3.53;1.30;;;22.00;55.30;;;;;;7342796;19;108444;-93
2022/04/18 11:47:48;;;;;;;9.60;1.77;;;22.10;56.20;;;;;;7348161;19;109250;-91
2022/04/18 11:50:23;;;;;;;3.67;1.50;;;22.20;51.70;;;;;;7343061;19;110505;-93
2022/04/18 11:53:05;;;;;;;3.20;1.50;;;22.30;52.30;;;;;;7347743;19;110234;-93
2022/04/18 11:55:43;;;;;;;2.40;1.60;;;22.30;52.40;;;;;;7348420;19;107345;-93
2022/04/18 11:58:11;;;;;;;2.65;1.60;;;22.30;49.60;;;;;;7348284;19;107786;-92
2022/04/18 12:09:08;;;;;;;2.65;1.83;;;23.00;49.60;;;;;;7336653;19;108286;-92
2022/04/18 12:11:38;;;;;;;2.10;1.30;;;23.10;50.90;;;;;;7345951;19;108881;-91
2022/04/18 12:14:08;;;;;;;2.75;1.30;;;23.20;51.50;;;;;;7340117;19;107832;-95
2022/04/18 12:16:38;;;;;;;2.88;1.40;;;23.30;51.60;;;;;;7337638;19;110692;-94
2022/04/18 12:19:15;;;;;;;3.25;1.50;;;23.40;51.20;;;;;;7344051;19;107961;-95
2022/04/18 12:21:44;;;;;;;2.53;1.45;;;23.50;50.10;;;;;;7344287;19;108870;-94
2022/04/18 12:24:11;;;;;;;1.50;1.27;;;23.70;50.10;;;;;;7348990;19;109725;-93
2022/04/18 12:26:39;;;;;;;2.47;1.38;;;23.80;50.60;;;;;;7344091;19;107655;-89
2022/04/18 12:29:07;;;;;;;2.22;1.60;;;23.90;47.10;;;;;;7333244;19;108023;-88
2022/04/18 12:31:41;;;;;;;4.30;1.60;;;23.80;47.90;;;;;;7334301;19;112469;-87
2022/04/18 12:34:19;;;;;;;2.45;1.40;;;24.00;47.30;;;;;;7340334;19;108624;-87
2022/04/18 12:37:01;;;;;;;1.83;1.50;;;24.20;48.30;;;;;;7334458;19;108126;-87
2022/04/18 12:39:28;;;;;;;2.75;1.63;;;24.40;48.60;;;;;;7335547;19;108294;-87
2022/04/18 12:42:03;;;;;;;3.30;1.40;;;24.60;48.00;;;;;;7337670;19;108995;-88
2022/04/18 12:44:30;;;;;;;5.25;1.50;;;24.70;46.40;;;;;;7335901;19;112277;-88
2022/04/18 12:47:18;;;;;;;1.98;1.63;;;24.70;48.00;;;;;;7336271;19;108091;-88
2022/04/18 12:50:16;;;;;;;3.55;1.38;;;24.80;46.20;;;;;;7336562;19;110442;-88
2022/04/18 12:52:53;;;;;;;3.03;1.70;;;24.70;44.50;;;;;;7336791;19;109757;-88
2022/04/18 12:55:30;;;;;;;3.13;1.05;;;24.80;47.70;;;;;;7336107;19;108434;-86
2022/04/18 12:57:58;;;;;;;;;;;25.00;48.40;;;;;;7342073;19;107935;-88
2022/04/18 13:00:34;;;;;;;1.77;1.20;;;25.20;48.80;;;;;;7337005;19;107715;-85
2022/04/18 13:03:07;;;;;;;1.52;1.23;;;25.50;47.20;;;;;;7333840;19;108768;-88
2022/04/18 13:05:41;;;;;;;3.05;1.33;;;25.60;47.10;;;;;;7334567;19;111372;-88
2022/04/18 13:08:09;;;;;;;2.88;1.40;;;25.70;47.50;;;;;;7336226;19;108114;-90
2022/04/18 13:10:38;;;;;;;3.17;1.48;;;25.80;46.60;;;;;;7340255;19;107302;-92
2022/04/18 13:13:07;;;;;;;4.03;1.40;;;26.00;45.70;;;;;;7340875;19;107832;-93
2022/04/18 13:15:35;;;;;;;4.25;1.50;;;26.10;43.80;;;;;;7339292;19;108112;-94
2022/04/18 13:18:04;;;;;;;6.30;1.20;;;26.10;42.40;;;;;;7338718;19;107081;-95